sensor_id;sensor_type;location;lat;lon;timestamp;temperature;humidity
44843;DHT22;31884;52.538;13.820;2023-04-24T00:02:18;9.30;99.90
44843;DHT22;31884;52.538;13.820;2023-04-24T00:04:44;9.40;99.90
44843;DHT22;31884;52.538;13.820;2023-04-24T00:07:12;9.40;99.90
44843;DHT22;31884;52.538;13.820;2023-04-24T00:09:38;9.30;99.90
44843;DHT22;31884;52.538;13.820;2023-04-24T00:12:04;9.30;99.90
44843;DHT22;31884;52.538;13.820;2023-04-24T00:14:30;9.30;99.90
44843;DHT22;31884;52.538;13.820;2023-04-24T00:16:56;9.30;99.90
44843;DHT22;31884;52.538;13.820;2023-04-24T00:19:22;9.20;99.90
44843;DHT22;31884;52.538;13.820;2023-04-24T00:21:47;9.20;99.90
44843;DHT22;31884;52.538;13.820;2023-04-24T00:24:16;9.20;99.90
44843;DHT22;31884;52.538;13.820;2023-04-24T00:26:42;9.10;99.90
44843;DHT22;31884;52.538;13.820;2023-04-24T00:29:07;9.10;99.90
44843;DHT22;31884;52.538;13.820;2023-04-24T00:31:33;9.00;99.90
44843;DHT22;31884;52.538;13.820;2023-04-24T00:34:03;9.00;99.90
44843;DHT22;31884;52.538;13.820;2023-04-24T00:36:29;9.00;99.90
44843;DHT22;31884;52.538;13.820;2023-04-24T00:38:56;9.00;99.90
44843;DHT22;31884;52.538;13.820;2023-04-24T00:41:21;9.00;99.90
44843;DHT22;31884;52.538;13.820;2023-04-24T00:43:47;9.10;99.90
44843;DHT22;31884;52.538;13.820;2023-04-24T00:46:14;9.10;99.90
44843;DHT22;31884;52.538;13.820;2023-04-24T00:48:40;9.10;99.90
44843;DHT22;31884;52.538;13.820;2023-04-24T00:51:06;9.10;99.90
44843;DHT22;31884;52.538;13.820;2023-04-24T00:53:31;9.10;99.90
44843;DHT22;31884;52.538;13.820;2023-04-24T00:55:58;9.10;99.90
44843;DHT22;31884;52.538;13.820;2023-04-24T00:58:24;9.10;99.90
44843;DHT22;31884;52.538;13.820;2023-04-24T01:00:50;9.10;99.90
44843;DHT22;31884;52.538;13.820;2023-04-24T01:03:20;9.10;99.90
44843;DHT22;31884;52.538;13.820;2023-04-24T01:05:46;9.10;99.90
44843;DHT22;31884;52.538;13.820;2023-04-24T01:08:13;9.10;99.90
44843;DHT22;31884;52.538;13.820;2023-04-24T01:10:40;9.10;99.90
44843;DHT22;31884;52.538;13.820;2023-04-24T01:13:07;9.10;99.90
44843;DHT22;31884;52.538;13.820;2023-04-24T01:15:34;9.10;99.90
44843;DHT22;31884;52.538;13.820;2023-04-24T01:17:59;9.10;99.90
44843;DHT22;31884;52.538;13.820;2023-04-24T01:20:25;9.00;99.90
44843;DHT22;31884;52.538;13.820;2023-04-24T01:22:51;9.10;99.90
44843;DHT22;31884;52.538;13.820;2023-04-24T01:25:18;9.20;99.90
44843;DHT22;31884;52.538;13.820;2023-04-24T01:27:43;9.10;99.90
44843;DHT22;31884;52.538;13.820;2023-04-24T01:30:10;9.10;99.90
44843;DHT22;31884;52.538;13.820;2023-04-24T01:32:36;9.20;99.90
44843;DHT22;31884;52.538;13.820;2023-04-24T01:35:03;9.20;99.90
44843;DHT22;31884;52.538;13.820;2023-04-24T01:37:29;9.20;99.90
44843;DHT22;31884;52.538;13.820;2023-04-24T01:39:54;9.30;99.90
44843;DHT22;31884;52.538;13.820;2023-04-24T01:42:20;9.30;99.90
44843;DHT22;31884;52.538;13.820;2023-04-24T01:44:45;9.30;99.90
44843;DHT22;31884;52.538;13.820;2023-04-24T01:47:11;9.40;99.90
44843;DHT22;31884;52.538;13.820;2023-04-24T01:49:38;9.50;99.90
44843;DHT22;31884;52.538;13.820;2023-04-24T01:52:04;9.50;99.90
44843;DHT22;31884;52.538;13.820;2023-04-24T01:54:30;9.40;99.90
44843;DHT22;31884;52.538;13.820;2023-04-24T01:56:55;9.40;99.90
44843;DHT22;31884;52.538;13.820;2023-04-24T01:59:21;9.50;99.90
44843;DHT22;31884;52.538;13.820;2023-04-24T02:01:48;9.40;99.90
44843;DHT22;31884;52.538;13.820;2023-04-24T02:04:14;9.50;99.90
44843;DHT22;31884;52.538;13.820;2023-04-24T02:06:40;9.40;99.90
44843;DHT22;31884;52.538;13.820;2023-04-24T02:09:06;9.40;99.90
44843;DHT22;31884;52.538;13.820;2023-04-24T02:11:31;9.30;99.90
44843;DHT22;31884;52.538;13.820;2023-04-24T02:13:57;9.30;99.90
44843;DHT22;31884;52.538;13.820;2023-04-24T02:16:22;9.40;99.90
44843;DHT22;31884;52.538;13.820;2023-04-24T02:18:48;9.50;99.90
44843;DHT22;31884;52.538;13.820;2023-04-24T02:21:13;9.50;99.90
44843;DHT22;31884;52.538;13.820;2023-04-24T02:23:39;9.50;99.90
44843;DHT22;31884;52.538;13.820;2023-04-24T02:26:04;9.50;99.90
44843;DHT22;31884;52.538;13.820;2023-04-24T02:28:30;9.50;99.90
44843;DHT22;31884;52.538;13.820;2023-04-24T02:30:55;9.50;99.90
44843;DHT22;31884;52.538;13.820;2023-04-24T02:33:21;9.50;99.90
44843;DHT22;31884;52.538;13.820;2023-04-24T02:35:46;9.50;99.90
44843;DHT22;31884;52.538;13.820;2023-04-24T02:38:12;9.50;99.90
44843;DHT22;31884;52.538;13.820;2023-04-24T02:40:37;9.50;99.90
44843;DHT22;31884;52.538;13.820;2023-04-24T02:43:03;9.50;99.90
44843;DHT22;31884;52.538;13.820;2023-04-24T02:45:28;9.40;99.90
44843;DHT22;31884;52.538;13.820;2023-04-24T02:47:54;9.40;99.90
44843;DHT22;31884;52.538;13.820;2023-04-24T02:50:19;9.40;99.90
44843;DHT22;31884;52.538;13.820;2023-04-24T02:52:45;9.40;99.90
44843;DHT22;31884;52.538;13.820;2023-04-24T02:55:10;9.40;99.90
44843;DHT22;31884;52.538;13.820;2023-04-24T02:57:36;9.40;99.90
44843;DHT22;31884;52.538;13.820;2023-04-24T03:00:02;9.40;99.90
44843;DHT22;31884;52.538;13.820;2023-04-24T03:02:28;9.40;99.90
44843;DHT22;31884;52.538;13.820;2023-04-24T03:04:53;9.40;99.90
44843;DHT22;31884;52.538;13.820;2023-04-24T03:07:20;9.40;99.90
44843;DHT22;31884;52.538;13.820;2023-04-24T03:09:46;9.50;99.90
44843;DHT22;31884;52.538;13.820;2023-04-24T03:12:12;9.50;99.90
44843;DHT22;31884;52.538;13.820;2023-04-24T03:14:38;9.60;99.90
44843;DHT22;31884;52.538;13.820;2023-04-24T03:17:03;9.60;99.90
44843;DHT22;31884;52.538;13.820;2023-04-24T03:19:29;9.70;99.90
44843;DHT22;31884;52.538;13.820;2023-04-24T03:21:54;9.70;99.90
44843;DHT22;31884;52.538;13.820;2023-04-24T03:24:20;9.80;99.90
44843;DHT22;31884;52.538;13.820;2023-04-24T03:26:46;9.80;99.90
44843;DHT22;31884;52.538;13.820;2023-04-24T03:29:11;9.80;99.90
44843;DHT22;31884;52.538;13.820;2023-04-24T03:31:36;9.90;99.90
44843;DHT22;31884;52.538;13.820;2023-04-24T03:34:02;9.90;99.90
44843;DHT22;31884;52.538;13.820;2023-04-24T03:36:27;9.90;99.90
44843;DHT22;31884;52.538;13.820;2023-04-24T03:38:53;9.90;99.90
44843;DHT22;31884;52.538;13.820;2023-04-24T03:41:18;10.00;99.90
44843;DHT22;31884;52.538;13.820;2023-04-24T03:43:44;10.00;99.90
44843;DHT22;31884;52.538;13.820;2023-04-24T03:46:10;10.00;99.90
44843;DHT22;31884;52.538;13.820;2023-04-24T03:48:35;10.10;99.90
44843;DHT22;31884;52.538;13.820;2023-04-24T03:51:01;10.10;99.90
44843;DHT22;31884;52.538;13.820;2023-04-24T03:53:26;10.10;99.90
44843;DHT22;31884;52.538;13.820;2023-04-24T03:55:53;10.20;99.90
44843;DHT22;31884;52.538;13.820;2023-04-24T03:58:19;10.20;99.90
44843;DHT22;31884;52.538;13.820;2023-04-24T04:00:44;10.20;99.90
44843;DHT22;31884;52.538;13.820;2023-04-24T04:03:11;10.30;99.90
44843;DHT22;31884;52.538;13.820;2023-04-24T04:05:38;10.30;99.90
44843;DHT22;31884;52.538;13.820;2023-04-24T04:08:03;10.30;99.90
44843;DHT22;31884;52.538;13.820;2023-04-24T04:10:29;10.30;99.90
44843;DHT22;31884;52.538;13.820;2023-04-24T04:12:54;10.40;99.90
44843;DHT22;31884;52.538;13.820;2023-04-24T04:15:20;10.30;99.90
44843;DHT22;31884;52.538;13.820;2023-04-24T04:17:46;10.40;99.90
44843;DHT22;31884;52.538;13.820;2023-04-24T04:20:12;10.40;99.90
44843;DHT22;31884;52.538;13.820;2023-04-24T04:22:37;10.40;99.90
44843;DHT22;31884;52.538;13.820;2023-04-24T04:25:03;10.40;99.90
44843;DHT22;31884;52.538;13.820;2023-04-24T04:27:30;10.40;99.90
44843;DHT22;31884;52.538;13.820;2023-04-24T04:29:58;10.50;99.90
44843;DHT22;31884;52.538;13.820;2023-04-24T04:32:26;10.50;99.90
44843;DHT22;31884;52.538;13.820;2023-04-24T04:34:52;10.50;99.90
44843;DHT22;31884;52.538;13.820;2023-04-24T04:37:18;10.50;99.90
44843;DHT22;31884;52.538;13.820;2023-04-24T04:39:44;10.50;99.90
44843;DHT22;31884;52.538;13.820;2023-04-24T04:42:09;10.60;99.90
44843;DHT22;31884;52.538;13.820;2023-04-24T04:44:35;10.70;99.90
44843;DHT22;31884;52.538;13.820;2023-04-24T04:47:01;10.80;99.90
44843;DHT22;31884;52.538;13.820;2023-04-24T04:49:31;10.80;99.90
44843;DHT22;31884;52.538;13.820;2023-04-24T04:51:56;10.80;99.90
44843;DHT22;31884;52.538;13.820;2023-04-24T04:54:22;10.80;99.90
44843;DHT22;31884;52.538;13.820;2023-04-24T04:56:50;10.90;99.90
44843;DHT22;31884;52.538;13.820;2023-04-24T04:59:15;10.80;99.90
44843;DHT22;31884;52.538;13.820;2023-04-24T05:01:41;10.90;99.90
44843;DHT22;31884;52.538;13.820;2023-04-24T05:04:06;10.90;99.90
44843;DHT22;31884;52.538;13.820;2023-04-24T05:06:32;10.90;99.90
44843;DHT22;31884;52.538;13.820;2023-04-24T05:08:57;10.90;99.90
44843;DHT22;31884;52.538;13.820;2023-04-24T05:11:23;11.00;99.90
44843;DHT22;31884;52.538;13.820;2023-04-24T05:13:49;11.00;99.90
44843;DHT22;31884;52.538;13.820;2023-04-24T05:16:14;11.00;99.90
44843;DHT22;31884;52.538;13.820;2023-04-24T05:18:40;11.00;99.90
44843;DHT22;31884;52.538;13.820;2023-04-24T05:21:05;11.10;99.90
44843;DHT22;31884;52.538;13.820;2023-04-24T05:23:31;11.10;99.90
44843;DHT22;31884;52.538;13.820;2023-04-24T05:25:56;11.20;99.90
44843;DHT22;31884;52.538;13.820;2023-04-24T05:28:22;11.20;99.90
44843;DHT22;31884;52.538;13.820;2023-04-24T05:30:48;11.30;99.90
44843;DHT22;31884;52.538;13.820;2023-04-24T05:33:13;11.40;99.90
44843;DHT22;31884;52.538;13.820;2023-04-24T05:35:40;11.50;99.90
44843;DHT22;31884;52.538;13.820;2023-04-24T05:38:11;11.50;99.90
44843;DHT22;31884;52.538;13.820;2023-04-24T05:40:37;11.70;99.90
44843;DHT22;31884;52.538;13.820;2023-04-24T05:43:02;11.80;99.90
44843;DHT22;31884;52.538;13.820;2023-04-24T05:45:28;11.90;99.90
44843;DHT22;31884;52.538;13.820;2023-04-24T05:47:54;12.10;99.90
44843;DHT22;31884;52.538;13.820;2023-04-24T05:50:21;12.30;99.90
44843;DHT22;31884;52.538;13.820;2023-04-24T05:52:46;12.40;99.90
44843;DHT22;31884;52.538;13.820;2023-04-24T05:55:12;12.70;99.90
44843;DHT22;31884;52.538;13.820;2023-04-24T05:57:38;14.00;99.90
44843;DHT22;31884;52.538;13.820;2023-04-24T06:00:04;14.90;99.90
44843;DHT22;31884;52.538;13.820;2023-04-24T06:02:30;15.20;99.90
44843;DHT22;31884;52.538;13.820;2023-04-24T06:04:58;15.30;99.90
44843;DHT22;31884;52.538;13.820;2023-04-24T06:07:25;15.40;99.90
44843;DHT22;31884;52.538;13.820;2023-04-24T06:09:51;15.30;99.90
44843;DHT22;31884;52.538;13.820;2023-04-24T06:12:17;15.30;99.90
44843;DHT22;31884;52.538;13.820;2023-04-24T06:14:43;15.90;99.90
44843;DHT22;31884;52.538;13.820;2023-04-24T06:17:08;17.50;94.10
44843;DHT22;31884;52.538;13.820;2023-04-24T06:19:34;18.70;94.90
44843;DHT22;31884;52.538;13.820;2023-04-24T06:21:59;19.30;91.50
44843;DHT22;31884;52.538;13.820;2023-04-24T06:24:28;19.30;77.50
44843;DHT22;31884;52.538;13.820;2023-04-24T06:26:54;19.00;86.00
44843;DHT22;31884;52.538;13.820;2023-04-24T06:29:19;18.90;88.60
44843;DHT22;31884;52.538;13.820;2023-04-24T06:31:45;19.10;86.70
44843;DHT22;31884;52.538;13.820;2023-04-24T06:34:10;19.40;83.00
44843;DHT22;31884;52.538;13.820;2023-04-24T06:36:35;20.00;82.40
44843;DHT22;31884;52.538;13.820;2023-04-24T06:39:01;20.80;78.00
44843;DHT22;31884;52.538;13.820;2023-04-24T06:41:27;21.30;70.20
44843;DHT22;31884;52.538;13.820;2023-04-24T06:43:53;21.80;69.10
44843;DHT22;31884;52.538;13.820;2023-04-24T06:46:18;22.50;66.80
44843;DHT22;31884;52.538;13.820;2023-04-24T06:48:44;22.70;61.80
44843;DHT22;31884;52.538;13.820;2023-04-24T06:51:10;22.50;59.10
44843;DHT22;31884;52.538;13.820;2023-04-24T06:53:35;22.00;60.40
44843;DHT22;31884;52.538;13.820;2023-04-24T06:56:01;22.00;60.80
44843;DHT22;31884;52.538;13.820;2023-04-24T06:58:26;22.30;59.70
44843;DHT22;31884;52.538;13.820;2023-04-24T07:00:51;22.50;57.60
44843;DHT22;31884;52.538;13.820;2023-04-24T07:03:17;22.30;58.20
44843;DHT22;31884;52.538;13.820;2023-04-24T07:05:42;22.20;57.40
44843;DHT22;31884;52.538;13.820;2023-04-24T07:08:08;22.30;54.90
44843;DHT22;31884;52.538;13.820;2023-04-24T07:10:34;22.90;53.90
44843;DHT22;31884;52.538;13.820;2023-04-24T07:13:00;24.00;48.00
44843;DHT22;31884;52.538;13.820;2023-04-24T07:15:26;24.90;41.20
44843;DHT22;31884;52.538;13.820;2023-04-24T07:17:52;25.60;40.40
44843;DHT22;31884;52.538;13.820;2023-04-24T07:20:18;25.90;33.10
44843;DHT22;31884;52.538;13.820;2023-04-24T07:22:43;25.90;29.30
44843;DHT22;31884;52.538;13.820;2023-04-24T07:25:09;26.00;23.30
44843;DHT22;31884;52.538;13.820;2023-04-24T07:27:35;26.90;28.60
44843;DHT22;31884;52.538;13.820;2023-04-24T07:30:02;27.60;26.50
44843;DHT22;31884;52.538;13.820;2023-04-24T07:32:28;27.30;25.10
44843;DHT22;31884;52.538;13.820;2023-04-24T07:34:53;26.70;24.40
44843;DHT22;31884;52.538;13.820;2023-04-24T07:37:19;27.00;24.60
44843;DHT22;31884;52.538;13.820;2023-04-24T07:39:45;28.00;23.00
44843;DHT22;31884;52.538;13.820;2023-04-24T07:42:11;29.10;17.90
44843;DHT22;31884;52.538;13.820;2023-04-24T07:44:36;29.90;19.20
44843;DHT22;31884;52.538;13.820;2023-04-24T07:47:01;30.30;18.20
44843;DHT22;31884;52.538;13.820;2023-04-24T07:49:27;30.40;17.10
44843;DHT22;31884;52.538;13.820;2023-04-24T07:51:53;30.30;16.20
44843;DHT22;31884;52.538;13.820;2023-04-24T07:54:18;30.20;15.40
44843;DHT22;31884;52.538;13.820;2023-04-24T07:56:44;30.60;12.40
44843;DHT22;31884;52.538;13.820;2023-04-24T07:59:10;30.60;13.70
44843;DHT22;31884;52.538;13.820;2023-04-24T08:01:36;30.70;13.10
44843;DHT22;31884;52.538;13.820;2023-04-24T08:04:02;30.90;12.00
44843;DHT22;31884;52.538;13.820;2023-04-24T08:06:28;30.90;11.30
44843;DHT22;31884;52.538;13.820;2023-04-24T08:08:56;30.30;11.00
44843;DHT22;31884;52.538;13.820;2023-04-24T08:11:22;29.40;10.90
44843;DHT22;31884;52.538;13.820;2023-04-24T08:13:47;28.40;9.20
44843;DHT22;31884;52.538;13.820;2023-04-24T08:16:13;27.40;10.80
44843;DHT22;31884;52.538;13.820;2023-04-24T08:18:38;26.80;11.30
44843;DHT22;31884;52.538;13.820;2023-04-24T08:21:04;26.40;11.70
44843;DHT22;31884;52.538;13.820;2023-04-24T08:23:30;26.20;11.80
44843;DHT22;31884;52.538;13.820;2023-04-24T08:25:55;26.00;11.70
44843;DHT22;31884;52.538;13.820;2023-04-24T08:28:22;25.90;12.20
44843;DHT22;31884;52.538;13.820;2023-04-24T08:30:47;25.90;12.30
44843;DHT22;31884;52.538;13.820;2023-04-24T08:33:14;26.00;12.50
44843;DHT22;31884;52.538;13.820;2023-04-24T08:35:39;26.00;11.80
44843;DHT22;31884;52.538;13.820;2023-04-24T08:38:05;26.00;11.10
44843;DHT22;31884;52.538;13.820;2023-04-24T08:40:33;26.10;11.90
44843;DHT22;31884;52.538;13.820;2023-04-24T08:42:59;26.20;11.40
44843;DHT22;31884;52.538;13.820;2023-04-24T08:45:25;26.10;11.70
44843;DHT22;31884;52.538;13.820;2023-04-24T08:47:52;25.80;10.70
44843;DHT22;31884;52.538;13.820;2023-04-24T08:50:19;25.50;11.10
44843;DHT22;31884;52.538;13.820;2023-04-24T08:52:45;25.20;11.10
44843;DHT22;31884;52.538;13.820;2023-04-24T08:55:10;24.90;11.00
44843;DHT22;31884;52.538;13.820;2023-04-24T08:57:36;24.70;10.80
44843;DHT22;31884;52.538;13.820;2023-04-24T09:00:04;24.40;10.90
44843;DHT22;31884;52.538;13.820;2023-04-24T09:02:30;24.20;10.90
44843;DHT22;31884;52.538;13.820;2023-04-24T09:04:57;24.00;11.20
44843;DHT22;31884;52.538;13.820;2023-04-24T09:07:24;24.00;11.50
44843;DHT22;31884;52.538;13.820;2023-04-24T09:09:51;24.00;11.20
44843;DHT22;31884;52.538;13.820;2023-04-24T09:12:18;24.00;10.90
44843;DHT22;31884;52.538;13.820;2023-04-24T09:14:44;24.20;11.60
44843;DHT22;31884;52.538;13.820;2023-04-24T09:17:11;24.40;11.40
44843;DHT22;31884;52.538;13.820;2023-04-24T09:19:37;24.70;11.20
44843;DHT22;31884;52.538;13.820;2023-04-24T09:22:06;24.80;10.90
44843;DHT22;31884;52.538;13.820;2023-04-24T09:24:33;24.90;10.50
44843;DHT22;31884;52.538;13.820;2023-04-24T09:26:59;25.00;10.40
44843;DHT22;31884;52.538;13.820;2023-04-24T09:29:26;24.90;9.70
44843;DHT22;31884;52.538;13.820;2023-04-24T09:31:52;24.70;9.00
44843;DHT22;31884;52.538;13.820;2023-04-24T09:34:22;24.40;8.80
44843;DHT22;31884;52.538;13.820;2023-04-24T09:36:48;24.00;8.30
44843;DHT22;31884;52.538;13.820;2023-04-24T09:39:15;23.60;9.20
44843;DHT22;31884;52.538;13.820;2023-04-24T09:42:01;23.60;9.30
44843;DHT22;31884;52.538;13.820;2023-04-24T09:44:27;23.50;8.80
44843;DHT22;31884;52.538;13.820;2023-04-24T09:46:59;23.40;9.20
44843;DHT22;31884;52.538;13.820;2023-04-24T09:49:27;23.30;10.00
44843;DHT22;31884;52.538;13.820;2023-04-24T09:52:06;23.20;9.70
44843;DHT22;31884;52.538;13.820;2023-04-24T09:54:32;23.00;10.10
44843;DHT22;31884;52.538;13.820;2023-04-24T09:56:58;22.60;10.10
44843;DHT22;31884;52.538;13.820;2023-04-24T09:59:25;22.40;10.40
44843;DHT22;31884;52.538;13.820;2023-04-24T10:01:51;22.20;10.80
44843;DHT22;31884;52.538;13.820;2023-04-24T10:06:44;22.00;11.50
44843;DHT22;31884;52.538;13.820;2023-04-24T10:09:09;22.10;11.70
44843;DHT22;31884;52.538;13.820;2023-04-24T10:11:37;22.10;11.60
44843;DHT22;31884;52.538;13.820;2023-04-24T10:14:05;22.00;11.80
44843;DHT22;31884;52.538;13.820;2023-04-24T10:16:31;21.80;12.60
44843;DHT22;31884;52.538;13.820;2023-04-24T10:18:59;21.60;12.80
44843;DHT22;31884;52.538;13.820;2023-04-24T10:21:26;21.30;13.80
44843;DHT22;31884;52.538;13.820;2023-04-24T10:23:52;20.80;15.40
44843;DHT22;31884;52.538;13.820;2023-04-24T10:26:19;20.60;15.10
44843;DHT22;31884;52.538;13.820;2023-04-24T10:28:45;20.30;15.30
44843;DHT22;31884;52.538;13.820;2023-04-24T10:31:12;20.10;15.90
44843;DHT22;31884;52.538;13.820;2023-04-24T10:33:40;20.00;16.20
44843;DHT22;31884;52.538;13.820;2023-04-24T10:36:09;19.70;18.00
44843;DHT22;31884;52.538;13.820;2023-04-24T10:38:35;19.40;20.30
44843;DHT22;31884;52.538;13.820;2023-04-24T10:41:11;19.10;20.80
44843;DHT22;31884;52.538;13.820;2023-04-24T10:44:10;18.90;23.10
44843;DHT22;31884;52.538;13.820;2023-04-24T10:46:37;18.80;22.50
44843;DHT22;31884;52.538;13.820;2023-04-24T10:49:04;18.80;23.30
44843;DHT22;31884;52.538;13.820;2023-04-24T10:51:49;18.90;23.70
44843;DHT22;31884;52.538;13.820;2023-04-24T10:54:22;19.10;24.90
44843;DHT22;31884;52.538;13.820;2023-04-24T10:56:50;19.30;23.60
44843;DHT22;31884;52.538;13.820;2023-04-24T10:59:24;19.50;23.00
44843;DHT22;31884;52.538;13.820;2023-04-24T11:01:54;19.60;23.40
44843;DHT22;31884;52.538;13.820;2023-04-24T11:04:30;19.60;22.50
44843;DHT22;31884;52.538;13.820;2023-04-24T11:06:57;19.60;22.50
44843;DHT22;31884;52.538;13.820;2023-04-24T11:09:22;19.70;22.50
44843;DHT22;31884;52.538;13.820;2023-04-24T11:12:03;19.80;22.50
44843;DHT22;31884;52.538;13.820;2023-04-24T11:14:29;19.90;22.10
44843;DHT22;31884;52.538;13.820;2023-04-24T11:16:54;19.90;22.00
44843;DHT22;31884;52.538;13.820;2023-04-24T11:19:23;20.00;20.90
44843;DHT22;31884;52.538;13.820;2023-04-24T11:21:55;20.20;21.10
44843;DHT22;31884;52.538;13.820;2023-04-24T11:26:48;20.30;20.60
44843;DHT22;31884;52.538;13.820;2023-04-24T11:29:13;20.50;20.00
44843;DHT22;31884;52.538;13.820;2023-04-24T11:31:40;20.70;19.60
44843;DHT22;31884;52.538;13.820;2023-04-24T11:34:14;20.90;19.30
44843;DHT22;31884;52.538;13.820;2023-04-24T11:36:45;21.30;19.00
44843;DHT22;31884;52.538;13.820;2023-04-24T11:39:11;21.20;17.70
44843;DHT22;31884;52.538;13.820;2023-04-24T11:41:37;21.10;18.30
44843;DHT22;31884;52.538;13.820;2023-04-24T11:44:06;21.30;17.90
44843;DHT22;31884;52.538;13.820;2023-04-24T11:46:32;21.30;18.10
44843;DHT22;31884;52.538;13.820;2023-04-24T11:48:58;21.30;16.90
44843;DHT22;31884;52.538;13.820;2023-04-24T11:51:25;21.00;16.90
44843;DHT22;31884;52.538;13.820;2023-04-24T11:53:52;20.80;16.60
44843;DHT22;31884;52.538;13.820;2023-04-24T11:56:18;20.80;17.50
44843;DHT22;31884;52.538;13.820;2023-04-24T11:58:47;20.70;17.60
44843;DHT22;31884;52.538;13.820;2023-04-24T12:01:13;20.70;17.50
44843;DHT22;31884;52.538;13.820;2023-04-24T12:03:38;20.70;17.40
44843;DHT22;31884;52.538;13.820;2023-04-24T12:06:11;20.70;17.60
44843;DHT22;31884;52.538;13.820;2023-04-24T12:08:37;20.60;17.70
44843;DHT22;31884;52.538;13.820;2023-04-24T12:11:04;20.30;17.50
44843;DHT22;31884;52.538;13.820;2023-04-24T12:13:31;20.20;18.10
44843;DHT22;31884;52.538;13.820;2023-04-24T12:15:57;19.90;19.20
44843;DHT22;31884;52.538;13.820;2023-04-24T12:18:23;19.60;21.50
44843;DHT22;31884;52.538;13.820;2023-04-24T12:20:49;19.40;23.30
44843;DHT22;31884;52.538;13.820;2023-04-24T12:23:14;19.10;25.40
44843;DHT22;31884;52.538;13.820;2023-04-24T12:25:40;18.90;26.60
44843;DHT22;31884;52.538;13.820;2023-04-24T12:30:33;18.90;29.50
44843;DHT22;31884;52.538;13.820;2023-04-24T12:33:00;19.10;28.90
44843;DHT22;31884;52.538;13.820;2023-04-24T12:35:28;19.30;28.90
44843;DHT22;31884;52.538;13.820;2023-04-24T12:37:54;19.50;27.90
44843;DHT22;31884;52.538;13.820;2023-04-24T12:40:21;19.70;27.60
44843;DHT22;31884;52.538;13.820;2023-04-24T12:42:48;19.90;26.80
44843;DHT22;31884;52.538;13.820;2023-04-24T12:45:14;19.90;25.40
44843;DHT22;31884;52.538;13.820;2023-04-24T12:47:41;20.10;25.00
44843;DHT22;31884;52.538;13.820;2023-04-24T12:50:09;20.00;23.60
44843;DHT22;31884;52.538;13.820;2023-04-24T12:52:35;20.10;24.10
44843;DHT22;31884;52.538;13.820;2023-04-24T12:55:01;20.10;24.00
44843;DHT22;31884;52.538;13.820;2023-04-24T12:57:29;20.10;24.10
44843;DHT22;31884;52.538;13.820;2023-04-24T12:59:56;20.10;23.70
44843;DHT22;31884;52.538;13.820;2023-04-24T13:02:26;20.10;23.60
44843;DHT22;31884;52.538;13.820;2023-04-24T13:04:52;20.10;23.20
44843;DHT22;31884;52.538;13.820;2023-04-24T13:07:18;20.30;23.40
44843;DHT22;31884;52.538;13.820;2023-04-24T13:09:45;20.20;22.10
44843;DHT22;31884;52.538;13.820;2023-04-24T13:12:11;20.20;21.90
44843;DHT22;31884;52.538;13.820;2023-04-24T13:14:37;20.20;21.60
44843;DHT22;31884;52.538;13.820;2023-04-24T13:17:03;20.20;21.60
44843;DHT22;31884;52.538;13.820;2023-04-24T13:19:29;20.10;21.10
44843;DHT22;31884;52.538;13.820;2023-04-24T13:21:56;20.10;21.00
44843;DHT22;31884;52.538;13.820;2023-04-24T13:24:23;20.00;19.80
44843;DHT22;31884;52.538;13.820;2023-04-24T13:26:52;19.90;19.00
44843;DHT22;31884;52.538;13.820;2023-04-24T13:29:18;19.80;18.70
44843;DHT22;31884;52.538;13.820;2023-04-24T13:31:44;19.80;17.40
44843;DHT22;31884;52.538;13.820;2023-04-24T13:34:10;19.90;17.00
44843;DHT22;31884;52.538;13.820;2023-04-24T13:36:36;20.10;16.90
44843;DHT22;31884;52.538;13.820;2023-04-24T13:39:02;20.30;16.20
44843;DHT22;31884;52.538;13.820;2023-04-24T13:41:29;20.40;13.60
44843;DHT22;31884;52.538;13.820;2023-04-24T13:43:55;20.50;13.30
44843;DHT22;31884;52.538;13.820;2023-04-24T13:46:21;20.50;12.80
44843;DHT22;31884;52.538;13.820;2023-04-24T13:48:46;20.50;11.60
44843;DHT22;31884;52.538;13.820;2023-04-24T13:51:12;20.40;11.90
44843;DHT22;31884;52.538;13.820;2023-04-24T13:53:37;20.40;11.30
44843;DHT22;31884;52.538;13.820;2023-04-24T13:56:04;20.30;10.40
44843;DHT22;31884;52.538;13.820;2023-04-24T13:58:30;20.20;11.30
44843;DHT22;31884;52.538;13.820;2023-04-24T14:00:56;20.10;11.40
44843;DHT22;31884;52.538;13.820;2023-04-24T14:03:21;20.10;11.00
44843;DHT22;31884;52.538;13.820;2023-04-24T14:05:47;20.00;10.60
44843;DHT22;31884;52.538;13.820;2023-04-24T14:08:12;20.00;10.00
44843;DHT22;31884;52.538;13.820;2023-04-24T14:10:38;20.00;10.40
44843;DHT22;31884;52.538;13.820;2023-04-24T14:13:03;20.00;9.30
44843;DHT22;31884;52.538;13.820;2023-04-24T14:15:29;20.00;9.10
44843;DHT22;31884;52.538;13.820;2023-04-24T14:17:54;20.10;9.30
44843;DHT22;31884;52.538;13.820;2023-04-24T14:20:20;20.00;7.90
44843;DHT22;31884;52.538;13.820;2023-04-24T14:22:45;19.90;8.10
44843;DHT22;31884;52.538;13.820;2023-04-24T14:25:11;19.80;8.30
44843;DHT22;31884;52.538;13.820;2023-04-24T14:27:37;19.80;7.90
44843;DHT22;31884;52.538;13.820;2023-04-24T14:30:03;19.60;8.40
44843;DHT22;31884;52.538;13.820;2023-04-24T14:32:28;19.50;7.80
44843;DHT22;31884;52.538;13.820;2023-04-24T14:34:54;19.40;8.80
44843;DHT22;31884;52.538;13.820;2023-04-24T14:37:19;19.30;8.80
44843;DHT22;31884;52.538;13.820;2023-04-24T14:39:45;19.20;9.10
44843;DHT22;31884;52.538;13.820;2023-04-24T14:42:11;19.20;9.30
44843;DHT22;31884;52.538;13.820;2023-04-24T14:44:36;19.30;9.40
44843;DHT22;31884;52.538;13.820;2023-04-24T14:47:02;19.40;9.20
44843;DHT22;31884;52.538;13.820;2023-04-24T14:49:27;19.50;8.90
44843;DHT22;31884;52.538;13.820;2023-04-24T14:51:53;19.60;9.00
44843;DHT22;31884;52.538;13.820;2023-04-24T14:54:18;19.60;9.00
44843;DHT22;31884;52.538;13.820;2023-04-24T14:56:44;19.60;8.90
44843;DHT22;31884;52.538;13.820;2023-04-24T14:59:10;19.50;8.30
44843;DHT22;31884;52.538;13.820;2023-04-24T15:01:36;19.50;8.50
44843;DHT22;31884;52.538;13.820;2023-04-24T15:04:01;19.40;9.00
44843;DHT22;31884;52.538;13.820;2023-04-24T15:06:27;19.30;8.50
44843;DHT22;31884;52.538;13.820;2023-04-24T15:08:52;19.10;9.00
44843;DHT22;31884;52.538;13.820;2023-04-24T15:11:18;19.00;8.10
44843;DHT22;31884;52.538;13.820;2023-04-24T15:13:43;18.80;8.50
44843;DHT22;31884;52.538;13.820;2023-04-24T15:16:12;18.80;8.80
44843;DHT22;31884;52.538;13.820;2023-04-24T15:18:38;18.70;9.10
44843;DHT22;31884;52.538;13.820;2023-04-24T15:21:03;18.60;9.20
44843;DHT22;31884;52.538;13.820;2023-04-24T15:23:29;18.60;9.50